createdAt,value
2018-08-27T00:00:03.357Z,0.2
2018-08-27T00:05:02.762Z,13.1
2018-08-27T00:10:04.979Z,13.1
2018-08-27T00:15:05.376Z,13.1
2018-08-27T00:20:02.722Z,13.1
2018-08-27T00:25:05.584Z,13.2
2018-08-27T00:30:05.481Z,13.2
2018-08-27T00:35:03.149Z,13.2
2018-08-27T00:40:07.958Z,13.1
2018-08-27T00:45:03.202Z,13.1
2018-08-27T00:50:02.441Z,13.1
2018-08-27T00:55:02.810Z,13
2018-08-27T01:00:13.239Z,12.9
2018-08-27T01:05:12.484Z,12.8
2018-08-27T01:10:05.761Z,12.8
2018-08-27T01:15:05.204Z,12.7
2018-08-27T01:20:02.600Z,12.7
2018-08-27T01:25:02.957Z,12.6
2018-08-27T01:30:05.803Z,12.5
2018-08-27T01:35:10.136Z,12.4
2018-08-27T01:40:02.801Z,12.4
2018-08-27T01:45:05.646Z,12.4
2018-08-27T01:50:02.906Z,12.4
2018-08-27T01:55:03.194Z,12.4
2018-08-27T02:00:07.550Z,12.3
2018-08-27T02:05:02.938Z,12.3
2018-08-27T02:10:02.675Z,12.2
2018-08-27T02:15:02.968Z,12.2
2018-08-27T02:20:05.913Z,12
2018-08-27T02:25:07.656Z,12
2018-08-27T02:30:02.921Z,12
2018-08-27T02:35:08.450Z,11.9
2018-08-27T02:40:07.438Z,11.9
2018-08-27T02:45:05.192Z,11.9
2018-08-27T02:50:02.451Z,11.9
2018-08-27T02:55:05.239Z,11.9
2018-08-27T03:00:02.548Z,11.8
2018-08-27T03:05:05.256Z,11.8
2018-08-27T03:10:05.534Z,11.8
2018-08-27T03:15:05.781Z,11.8
2018-08-27T03:20:08.288Z,11.9
2018-08-27T03:25:02.554Z,11.8
2018-08-27T03:30:02.971Z,11.8
2018-08-27T03:35:05.020Z,11.8
2018-08-27T03:40:05.312Z,11.7
2018-08-27T03:45:05.593Z,11.7
2018-08-27T03:50:02.832Z,11.7
2018-08-27T03:55:03.245Z,11.6
2018-08-27T04:00:02.500Z,11.6
2018-08-27T04:05:05.393Z,11.5
2018-08-27T04:10:08.249Z,11.5
2018-08-27T04:15:02.452Z,11.5
2018-08-27T04:20:05.480Z,11.6
2018-08-27T04:25:03.282Z,11.6
2018-08-27T04:30:02.563Z,11.7
2018-08-27T04:35:05.424Z,11.8
2018-08-27T04:40:05.788Z,11.9
2018-08-27T04:45:05.159Z,12
2018-08-27T04:50:02.388Z,11.9
2018-08-27T04:55:05.280Z,12
2018-08-27T05:00:02.590Z,12
2018-08-27T05:05:05.402Z,12.1
2018-08-27T05:10:05.717Z,12.2
2018-08-27T05:15:02.421Z,12.2
2018-08-27T05:20:05.238Z,12.2
2018-08-27T05:25:05.540Z,12.3
2018-08-27T05:30:02.839Z,12.3
2018-08-27T05:35:03.132Z,12.3
2018-08-27T05:40:20.989Z,12.6
2018-08-27T05:45:02.691Z,12.6
2018-08-27T05:50:05.501Z,12.9
2018-08-27T05:55:05.081Z,13
2018-08-27T06:00:05.871Z,13.2
2018-08-27T06:05:05.193Z,13.3
2018-08-27T06:10:05.433Z,13.4
2018-08-27T06:15:05.723Z,13.5
2018-08-27T06:20:02.394Z,13.5
2018-08-27T06:25:18.324Z,13.8
2018-08-27T06:30:02.591Z,13.9
2018-08-27T06:35:18.111Z,14.4
2018-08-27T06:40:02.972Z,14.4
2018-08-27T06:45:08.221Z,14.8
2018-08-27T06:50:05.307Z,15.1
2018-08-27T06:55:20.713Z,15.3
2018-08-27T07:00:02.982Z,15.3
2018-08-27T07:05:10.299Z,15.6
2018-08-27T07:10:25.867Z,15.8
2018-08-27T07:15:05.680Z,16
2018-08-27T07:20:08.099Z,16.1
2018-08-27T07:25:07.745Z,16.2
2018-08-27T07:30:05.594Z,16.3
2018-08-27T07:35:04.928Z,16.5
2018-08-27T07:40:05.492Z,16.7
2018-08-27T07:45:03.219Z,16.7
2018-08-27T07:50:02.530Z,16.9
2018-08-27T07:55:07.900Z,17.2
2018-08-27T08:00:05.960Z,17.3
2018-08-27T08:05:02.607Z,17.3
2018-08-27T08:10:08.464Z,17.7
2018-08-27T08:15:02.677Z,17.7
2018-08-27T08:20:05.592Z,18
2018-08-27T08:25:02.388Z,18
2018-08-27T08:30:10.270Z,18.4
2018-08-27T08:35:10.601Z,18.5
2018-08-27T08:40:02.480Z,18.5
2018-08-27T08:45:05.154Z,18.8
2018-08-27T08:50:02.415Z,18.8
2018-08-27T08:55:10.311Z,18.9
2018-08-27T09:00:07.640Z,19
2018-08-27T09:05:07.979Z,19.2
2018-08-27T09:10:07.476Z,19.3
2018-08-27T09:15:05.365Z,19.5
2018-08-27T09:20:02.703Z,19.5
2018-08-27T09:25:03.199Z,19.6
2018-08-27T09:30:05.160Z,19.8
2018-08-27T09:35:10.610Z,19.8
2018-08-27T09:40:12.528Z,19.8
2018-08-27T09:45:05.173Z,19.9
2018-08-27T09:50:04.997Z,19.8
2018-08-27T09:55:02.832Z,19.8
2018-08-27T10:00:05.680Z,19.7
2018-08-27T10:05:17.667Z,19.7
2018-08-27T10:10:22.706Z,19.6
2018-08-27T10:15:05.592Z,19.5
2018-08-27T10:20:03.340Z,19.5
2018-08-27T10:25:05.478Z,19.7
2018-08-27T10:30:05.471Z,19.7
2018-08-27T10:35:03.184Z,19.7
2018-08-27T10:40:08.005Z,19.8
2018-08-27T10:50:02.700Z,19.9
2018-08-27T10:55:03.180Z,19.9
2018-08-27T11:00:05.143Z,20
2018-08-27T11:05:05.484Z,20.2
2018-08-27T11:10:15.079Z,20.2
2018-08-27T11:15:05.259Z,20.3
2018-08-27T11:20:05.343Z,20.4
2018-08-27T11:25:08.378Z,20.5
2018-08-27T11:30:02.969Z,20.5
2018-08-27T11:35:09.936Z,20.9
2018-08-27T11:40:02.711Z,20.9
2018-08-27T11:45:03.080Z,21.1
2018-08-27T11:50:05.040Z,21.1
2018-08-27T11:55:03.139Z,21.1
2018-08-27T12:00:07.731Z,21
2018-08-27T12:05:03.022Z,21
2018-08-27T12:10:02.829Z,20.8
2018-08-27T12:15:03.193Z,20.7
2018-08-27T12:20:07.646Z,20.8
2018-08-27T12:25:05.491Z,20.9
2018-08-27T12:30:15.453Z,20.8
2018-08-27T12:35:04.942Z,21
2018-08-27T12:40:05.241Z,21
2018-08-27T12:45:08.128Z,21
2018-08-27T12:50:02.425Z,21
2018-08-27T12:55:10.431Z,21
2018-08-27T13:00:10.497Z,20.9
2018-08-27T13:05:08.285Z,20.8
2018-08-27T13:10:03.138Z,20.8
2018-08-27T13:15:07.697Z,21
2018-08-27T13:20:03.153Z,21
2018-08-27T13:25:02.411Z,21.1
2018-08-27T13:30:13.119Z,21
2018-08-27T13:35:04.954Z,21.1
2018-08-27T13:40:02.770Z,21
2018-08-27T13:45:10.265Z,21
2018-08-27T13:50:27.881Z,20.9
2018-08-27T13:55:03.221Z,20.9
2018-08-27T14:00:05.155Z,20.7
2018-08-27T14:05:05.888Z,20.7
2018-08-27T14:10:10.625Z,20.8
2018-08-27T14:15:02.691Z,20.8
2018-08-27T14:20:05.346Z,20.9
2018-08-27T14:25:08.002Z,20.9
2018-08-27T14:30:17.873Z,21.2
2018-08-27T14:35:03.003Z,21.2
2018-08-27T14:40:07.845Z,22.1
2018-08-27T14:45:10.153Z,22.6
2018-08-27T14:50:05.733Z,22.5
2018-08-27T14:55:07.593Z,22.4
2018-08-27T15:00:02.962Z,22.4
2018-08-27T15:05:09.950Z,23.2
2018-08-27T15:10:05.350Z,22.9
2018-08-27T15:15:05.701Z,22.6
2018-08-27T15:20:03.120Z,22.6
2018-08-27T15:25:04.967Z,22.1
2018-08-27T15:30:05.853Z,22
2018-08-27T15:35:07.939Z,22
2018-08-27T15:40:07.854Z,22
2018-08-27T15:45:10.789Z,22
2018-08-27T15:50:03.244Z,22
2018-08-27T15:55:07.949Z,22.1
2018-08-27T16:00:02.584Z,22.1
2018-08-27T16:05:03.270Z,22.2
2018-08-27T16:10:03.175Z,22.3
2018-08-27T16:15:02.518Z,22.3
2018-08-27T16:20:05.609Z,22.1
2018-08-27T16:25:13.486Z,22.1
2018-08-27T16:30:07.881Z,22
2018-08-27T16:35:03.263Z,22
2018-08-27T16:40:05.625Z,21.8
2018-08-27T16:45:07.430Z,21.7
2018-08-27T16:50:02.744Z,21.7
2018-08-27T16:55:05.802Z,21.7
2018-08-27T17:00:08.446Z,21.6
2018-08-27T17:05:07.694Z,21.6
2018-08-27T17:10:02.572Z,21.6
2018-08-27T17:15:08.177Z,21.5
2018-08-27T17:20:10.246Z,21.4
2018-08-27T17:25:07.977Z,21.2
2018-08-27T17:30:03.351Z,21.2
2018-08-27T17:35:02.703Z,21.2
2018-08-27T17:40:02.502Z,21.2
2018-08-27T17:45:05.493Z,21
2018-08-27T17:50:02.977Z,21
2018-08-27T17:55:09.992Z,20.8
2018-08-27T18:00:02.714Z,20.8
2018-08-27T18:05:03.118Z,20.7
2018-08-27T18:10:13.251Z,20.5
2018-08-27T18:15:15.212Z,20.4
2018-08-27T18:20:02.755Z,20.4
2018-08-27T18:25:05.619Z,20.2
2018-08-27T18:30:05.665Z,20
2018-08-27T18:35:04.961Z,19.9
2018-08-27T18:40:02.808Z,19.9
2018-08-27T18:45:05.706Z,19.7
2018-08-27T18:50:10.757Z,19.6
2018-08-27T18:55:07.505Z,19.5
2018-08-27T19:00:05.335Z,19.4
2018-08-27T19:05:08.360Z,19.3
2018-08-27T19:10:03.165Z,19.4
2018-08-27T19:15:02.626Z,19.3
2018-08-27T19:20:03.023Z,19.3
2018-08-27T19:25:02.566Z,19.2
2018-08-27T19:30:03.232Z,19.2
2018-08-27T19:35:10.125Z,19.2
2018-08-27T19:40:05.190Z,19.2
2018-08-27T19:45:02.902Z,19.2
2018-08-27T19:50:08.235Z,19.2
2018-08-27T19:55:07.847Z,19.2
2018-08-27T20:00:05.041Z,19.3
2018-08-27T20:05:05.398Z,19.3
2018-08-27T20:10:07.889Z,19.4
2018-08-27T20:15:08.288Z,19.3
2018-08-27T20:20:05.285Z,19.1
2018-08-27T20:25:10.773Z,18.9
2018-08-27T20:30:04.976Z,18.7
2018-08-27T20:35:05.284Z,18.7
2018-08-27T20:40:08.141Z,18.7
2018-08-27T20:45:04.997Z,18.6
2018-08-27T20:50:07.657Z,18.5
2018-08-27T20:55:07.849Z,18.4
2018-08-27T21:00:03.210Z,18.4
2018-08-27T21:05:05.538Z,18.3
2018-08-27T21:10:03.374Z,18.3
2018-08-27T21:15:05.241Z,18.3
2018-08-27T21:20:05.160Z,18.2
2018-08-27T21:25:05.557Z,18.2
2018-08-27T21:30:07.955Z,18
2018-08-27T21:35:05.811Z,18.1
2018-08-27T21:40:10.184Z,18.1
2018-08-27T21:45:18.139Z,18
2018-08-27T21:50:02.515Z,18
2018-08-27T21:55:07.809Z,17.9
2018-08-27T22:00:08.151Z,17.8
2018-08-27T22:05:02.493Z,17.8
2018-08-27T22:10:03.261Z,17.8
2018-08-27T22:15:02.661Z,17.9
2018-08-27T22:20:03.080Z,17.9
2018-08-27T22:25:05.397Z,17.8
2018-08-27T22:30:05.292Z,17.8
2018-08-27T22:35:08.157Z,17.8
2018-08-27T22:40:02.941Z,17.8
2018-08-27T22:45:05.800Z,17.7
2018-08-27T22:50:15.794Z,17.7
2018-08-27T22:55:05.011Z,17.7
2018-08-27T23:00:03.331Z,17.7
2018-08-27T23:05:02.678Z,17.7
2018-08-27T23:10:02.939Z,17.6
2018-08-27T23:15:08.385Z,17.5
2018-08-27T23:20:05.343Z,17.5
2018-08-27T23:25:05.660Z,17.4
2018-08-27T23:30:25.743Z,17.3
2018-08-27T23:35:13.113Z,17.3
2018-08-27T23:40:28.194Z,17.3
2018-08-27T23:45:15.130Z,17.2
2018-08-27T23:50:04.960Z,17.2
2018-08-27T23:55:05.452Z,17.2
